Time;durP1;ratioP1;P1;durP2;ratioP2;P2;SDS_P1;SDS_P2;PMS_P1;PMS_P2;Temp;Humidity;BMP_temperature;BMP_pressure;BME280_temperature;BME280_humidity;BME280_pressure;Samples;Min_cycle;Max_cycle;Signal;HPM_P1;HPM_P2
2024/03/26 00:02:22;;;;;;;6.00;2.60;;;11.90;99.90;;;;;;5010050;28;20029;-79
2024/03/26 00:04:48;;;;;;;4.80;2.70;;;11.80;99.90;;;;;;5027200;28;20080;-79
2024/03/26 00:07:13;;;;;;;4.95;2.47;;;11.80;99.90;;;;;;5010884;28;20029;-78
2024/03/26 00:09:39;;;;;;;7.53;2.47;;;11.80;99.90;;;;;;5009639;28;20028;-78
2024/03/26 00:12:05;;;;;;;4.65;2.47;;;11.80;99.90;;;;;;5010760;28;20387;-78
2024/03/26 00:14:30;;;;;;;5.70;2.63;;;11.80;99.90;;;;;;5002031;28;20491;-79
2024/03/26 00:16:56;;;;;;;7.00;2.83;;;11.80;99.90;;;;;;5009674;28;20013;-78
2024/03/26 00:19:21;;;;;;;3.88;2.42;;;11.80;99.90;;;;;;5009643;28;20705;-79
2024/03/26 00:21:47;;;;;;;7.57;2.47;;;11.80;99.90;;;;;;5007475;28;20025;-79
2024/03/26 00:24:12;;;;;;;5.57;2.80;;;11.80;99.90;;;;;;5009810;28;20013;-79
2024/03/26 00:26:38;;;;;;;3.83;2.30;;;11.80;99.90;;;;;;5029337;28;20026;-79
2024/03/26 00:29:04;;;;;;;5.50;2.63;;;11.80;99.90;;;;;;5007938;28;20037;-78
2024/03/26 00:31:33;;;;;;;4.85;2.42;;;11.80;99.90;;;;;;5007215;28;20025;-78
2024/03/26 00:33:59;;;;;;;4.00;2.20;;;11.80;99.90;;;;;;5029077;28;20021;-79
2024/03/26 00:36:25;;;;;;;3.60;2.30;;;11.80;99.90;;;;;;5026498;28;20076;-78
2024/03/26 00:38:51;;;;;;;6.05;2.67;;;11.80;99.90;;;;;;5026323;28;20416;-79
2024/03/26 00:41:16;;;;;;;3.50;2.10;;;11.80;99.90;;;;;;5027969;28;20030;-79
2024/03/26 00:43:42;;;;;;;5.53;2.45;;;11.80;99.90;;;;;;5009086;28;20029;-79
2024/03/26 00:46:07;;;;;;;6.80;2.83;;;11.80;99.90;;;;;;5009839;28;20051;-79
2024/03/26 00:48:33;;;;;;;5.43;2.55;;;11.80;99.90;;;;;;5026762;28;20029;-78
2024/03/26 00:50:58;;;;;;;3.97;2.45;;;11.80;99.90;;;;;;5029082;28;20456;-78
2024/03/26 00:53:24;;;;;;;6.25;2.65;;;11.80;99.90;;;;;;5011455;28;20471;-78
2024/03/26 00:55:49;;;;;;;8.15;2.67;;;11.80;99.90;;;;;;5027548;28;20092;-78
2024/03/26 00:58:15;;;;;;;3.90;2.30;;;11.80;99.90;;;;;;5011340;28;20032;-78
2024/03/26 01:00:40;;;;;;;3.95;2.47;;;11.80;99.90;;;;;;5004306;28;20036;-79
2024/03/26 01:03:06;;;;;;;4.05;2.33;;;11.80;99.90;;;;;;5030156;28;20112;-80
2024/03/26 01:05:31;;;;;;;11.25;3.42;;;11.80;99.90;;;;;;5032566;28;20018;-80
2024/03/26 01:07:57;;;;;;;3.97;2.58;;;11.80;99.90;;;;;;5009883;28;20022;-79
2024/03/26 01:10:22;;;;;;;4.00;2.55;;;11.80;99.90;;;;;;5011539;28;20483;-78
2024/03/26 01:12:48;;;;;;;7.72;2.60;;;11.70;99.90;;;;;;5029264;28;20020;-79
2024/03/26 01:15:14;;;;;;;6.85;3.05;;;11.80;99.90;;;;;;5012237;28;20026;-78
2024/03/26 01:17:40;;;;;;;3.95;2.40;;;11.70;99.90;;;;;;5027481;28;20105;-79
2024/03/26 01:20:06;;;;;;;6.72;2.60;;;11.70;99.90;;;;;;5032085;28;20112;-78
2024/03/26 01:22:32;;;;;;;6.22;2.50;;;11.70;99.90;;;;;;5012684;28;20388;-78
2024/03/26 01:24:57;;;;;;;6.18;3.63;;;11.80;99.90;;;;;;5028533;28;20075;-79
2024/03/26 01:27:23;;;;;;;4.32;2.70;;;11.80;99.90;;;;;;5011755;28;20590;-79
2024/03/26 01:29:48;;;;;;;6.93;2.47;;;11.70;99.90;;;;;;5014521;28;20056;-79
2024/03/26 01:32:14;;;;;;;6.28;3.05;;;11.80;99.90;;;;;;5010138;28;20181;-78
2024/03/26 01:34:39;;;;;;;6.75;2.22;;;11.80;99.90;;;;;;5011838;28;20073;-79
2024/03/26 01:37:05;;;;;;;3.10;2.47;;;11.70;99.90;;;;;;5009773;28;20041;-79
2024/03/26 01:39:30;;;;;;;5.55;2.75;;;11.70;99.90;;;;;;5028315;28;20029;-79
2024/03/26 01:41:56;;;;;;;3.70;2.60;;;11.70;99.90;;;;;;5013083;28;20139;-79
2024/03/26 01:44:21;;;;;;;3.92;2.60;;;11.70;99.90;;;;;;5031565;28;20033;-78
2024/03/26 01:46:47;;;;;;;6.65;2.72;;;11.70;99.90;;;;;;5027327;28;20026;-79
2024/03/26 01:49:15;;;;;;;5.90;2.58;;;11.70;99.90;;;;;;5011976;28;20029;-78
2024/03/26 01:51:42;;;;;;;7.22;2.53;;;11.70;99.90;;;;;;5014070;28;20108;-79
2024/03/26 01:54:08;;;;;;;6.05;2.55;;;11.70;99.90;;;;;;5029670;28;20483;-79
2024/03/26 01:56:34;;;;;;;4.82;2.53;;;11.70;99.90;;;;;;5009499;28;20473;-79
2024/03/26 01:59:00;;;;;;;4.93;2.97;;;11.70;99.90;;;;;;5007728;28;20116;-80
2024/03/26 02:01:27;;;;;;;6.22;2.63;;;11.60;99.90;;;;;;5009453;28;20029;-78
2024/03/26 02:03:53;;;;;;;6.93;3.05;;;11.60;99.90;;;;;;5008884;28;20087;-79
2024/03/26 02:06:19;;;;;;;3.53;2.42;;;11.60;99.90;;;;;;5032372;28;20030;-79
2024/03/26 02:08:45;;;;;;;6.60;3.08;;;11.70;99.90;;;;;;5012885;28;20018;-78
2024/03/26 02:11:11;;;;;;;3.20;2.78;;;11.70;99.90;;;;;;5027854;28;20021;-79
2024/03/26 02:13:37;;;;;;;6.18;2.88;;;11.70;99.90;;;;;;5027796;28;20029;-79
2024/03/26 02:16:02;;;;;;;4.35;2.80;;;11.70;99.90;;;;;;5024419;28;20423;-78
2024/03/26 02:18:28;;;;;;;3.08;2.35;;;11.70;99.90;;;;;;5004495;28;20029;-78
2024/03/26 02:20:53;;;;;;;8.07;2.88;;;11.70;99.90;;;;;;5027704;28;20028;-79
2024/03/26 02:23:20;;;;;;;5.47;2.80;;;11.60;99.90;;;;;;5027937;28;20022;-78
2024/03/26 02:25:46;;;;;;;5.50;2.92;;;11.70;99.90;;;;;;5009274;28;20028;-79
2024/03/26 02:28:11;;;;;;;6.32;3.00;;;11.70;99.90;;;;;;5028421;28;20018;-79
2024/03/26 02:30:37;;;;;;;7.20;3.15;;;11.60;99.90;;;;;;5012951;28;20025;-79
2024/03/26 02:33:03;;;;;;;3.83;2.47;;;11.60;99.90;;;;;;5013640;28;20029;-79
2024/03/26 02:35:28;;;;;;;3.63;2.38;;;11.60;99.90;;;;;;5010838;28;20029;-79
2024/03/26 02:37:54;;;;;;;6.05;2.95;;;11.70;99.90;;;;;;5008513;28;20061;-78
2024/03/26 02:40:19;;;;;;;3.50;2.50;;;11.60;99.90;;;;;;5002920;28;20029;-80
2024/03/26 02:42:47;;;;;;;3.60;2.72;;;11.60;99.90;;;;;;5026950;28;20029;-78
2024/03/26 02:45:12;;;;;;;4.38;2.83;;;11.60;99.90;;;;;;5010771;28;20670;-79
2024/03/26 02:47:38;;;;;;;5.00;2.85;;;11.60;99.90;;;;;;5030302;28;20033;-79
2024/03/26 02:50:05;;;;;;;2.95;2.40;;;11.60;99.90;;;;;;5025585;28;20033;-78
2024/03/26 02:52:30;;;;;;;4.03;2.58;;;11.60;99.90;;;;;;5006774;28;20418;-78
2024/03/26 02:54:56;;;;;;;5.20;2.90;;;11.60;99.90;;;;;;5029983;28;20056;-80
2024/03/26 02:57:21;;;;;;;5.80;2.55;;;11.50;99.90;;;;;;5011210;28;20026;-77
2024/03/26 02:59:47;;;;;;;4.22;2.50;;;11.60;99.90;;;;;;5026057;28;20520;-78
2024/03/26 03:02:13;;;;;;;5.53;2.88;;;11.50;99.90;;;;;;5027107;28;20025;-79
2024/03/26 03:04:38;;;;;;;6.40;3.13;;;11.50;99.90;;;;;;5025519;28;20109;-78
2024/03/26 03:07:04;;;;;;;5.38;3.03;;;11.50;99.90;;;;;;5010236;28;20053;-78
2024/03/26 03:09:29;;;;;;;6.32;3.53;;;11.50;99.90;;;;;;5012100;28;20034;-79
2024/03/26 03:11:55;;;;;;;5.93;2.58;;;11.50;99.90;;;;;;5012099;28;20022;-79
2024/03/26 03:14:20;;;;;;;7.85;2.97;;;11.50;99.90;;;;;;5010026;28;20048;-78
2024/03/26 03:16:46;;;;;;;4.93;2.90;;;11.50;99.90;;;;;;5011551;28;20059;-78
2024/03/26 03:19:11;;;;;;;5.05;2.63;;;11.50;99.90;;;;;;5028567;28;20059;-79
2024/03/26 03:21:37;;;;;;;4.05;2.47;;;11.60;99.90;;;;;;5009730;28;20071;-79
2024/03/26 03:24:03;;;;;;;5.78;2.88;;;11.60;99.90;;;;;;5028666;28;20026;-78
2024/03/26 03:26:28;;;;;;;3.80;2.97;;;11.60;99.90;;;;;;5012582;28;20112;-79
2024/03/26 03:28:54;;;;;;;4.47;2.83;;;11.60;99.90;;;;;;5012221;28;20021;-78
2024/03/26 03:31:19;;;;;;;4.00;2.90;;;11.60;99.90;;;;;;5008861;28;20487;-79
2024/03/26 03:33:45;;;;;;;6.80;2.97;;;11.60;99.90;;;;;;5012368;28;20018;-79
2024/03/26 03:36:10;;;;;;;9.23;3.78;;;11.60;99.90;;;;;;5029251;28;20028;-78
2024/03/26 03:38:36;;;;;;;5.03;2.63;;;11.50;99.90;;;;;;5011688;28;20108;-79
2024/03/26 03:41:02;;;;;;;5.35;3.17;;;11.50;99.90;;;;;;5030045;28;20103;-78
2024/03/26 03:43:28;;;;;;;8.65;2.58;;;11.50;99.90;;;;;;5012311;28;20027;-79
2024/03/26 03:45:53;;;;;;;6.18;3.42;;;11.50;99.90;;;;;;5009559;28;20414;-79
2024/03/26 03:48:19;;;;;;;5.97;3.08;;;11.50;99.90;;;;;;5029334;28;20036;-78
2024/03/26 03:50:44;;;;;;;3.83;2.90;;;11.50;99.90;;;;;;5029937;28;20029;-78
2024/03/26 03:53:10;;;;;;;4.55;3.25;;;11.50;99.90;;;;;;5028377;28;20594;-79
2024/03/26 03:55:36;;;;;;;6.97;3.13;;;11.50;99.90;;;;;;5028761;28;20053;-79
2024/03/26 03:58:02;;;;;;;5.65;2.95;;;11.50;99.90;;;;;;5021321;28;20060;-79
2024/03/26 04:00:28;;;;;;;7.13;3.50;;;11.50;99.90;;;;;;5011892;28;20395;-79
2024/03/26 04:02:53;;;;;;;5.93;3.28;;;11.50;99.90;;;;;;5010278;28;20035;-79
2024/03/26 04:05:19;;;;;;;5.43;2.90;;;11.50;99.90;;;;;;5011019;28;20033;-78
2024/03/26 04:07:45;;;;;;;7.78;3.00;;;11.50;99.90;;;;;;5023120;28;20044;-78
2024/03/26 04:10:10;;;;;;;5.05;2.95;;;11.50;99.90;;;;;;5021112;28;20487;-78
2024/03/26 04:12:36;;;;;;;4.78;2.70;;;11.50;99.90;;;;;;5029345;28;20091;-78
2024/03/26 04:15:02;;;;;;;5.70;3.10;;;11.50;99.90;;;;;;5027558;28;20510;-79
2024/03/26 04:17:28;;;;;;;8.18;3.30;;;11.50;99.90;;;;;;5027450;28;21086;-78
2024/03/26 04:19:53;;;;;;;7.93;3.15;;;11.50;99.90;;;;;;5010906;28;20091;-78
2024/03/26 04:22:19;;;;;;;5.68;3.03;;;11.50;99.90;;;;;;5029528;28;20035;-78
2024/03/26 04:24:45;;;;;;;6.10;3.13;;;11.50;99.90;;;;;;5025777;28;20561;-78
2024/03/26 04:27:11;;;;;;;4.63;2.83;;;11.50;99.90;;;;;;5007101;28;20054;-79
2024/03/26 04:29:36;;;;;;;8.38;2.95;;;11.50;99.90;;;;;;5028961;28;20026;-78
2024/03/26 04:32:02;;;;;;;4.45;3.05;;;11.50;99.90;;;;;;5009341;28;20018;-79
2024/03/26 04:34:28;;;;;;;7.30;3.60;;;11.50;99.90;;;;;;5010952;28;20022;-78
2024/03/26 04:37:00;;;;;;;4.68;2.53;;;11.50;99.90;;;;;;5010517;28;20786;-78
2024/03/26 04:39:25;;;;;;;5.22;3.17;;;11.60;99.90;;;;;;5032964;28;20025;-78
2024/03/26 04:41:51;;;;;;;6.75;3.42;;;11.60;99.90;;;;;;5012456;28;20026;-79
2024/03/26 04:44:16;;;;;;;6.30;2.97;;;11.60;99.90;;;;;;5030834;28;20029;-78
2024/03/26 04:46:42;;;;;;;5.88;3.25;;;11.60;99.90;;;;;;5032563;28;20030;-79
2024/03/26 04:49:07;;;;;;;5.28;3.20;;;11.60;99.90;;;;;;5014275;28;20036;-78
2024/03/26 04:51:33;;;;;;;7.78;3.35;;;11.60;99.90;;;;;;5028778;28;20021;-79
2024/03/26 04:53:58;;;;;;;4.78;3.20;;;11.50;99.90;;;;;;5029494;28;20024;-79
2024/03/26 04:56:24;;;;;;;5.90;3.17;;;11.50;99.90;;;;;;5015609;28;20026;-78
2024/03/26 04:58:49;;;;;;;5.53;3.03;;;11.60;99.90;;;;;;5012201;28;20024;-79
2024/03/26 05:01:15;;;;;;;6.18;2.80;;;11.50;99.90;;;;;;5030943;28;20029;-79
2024/03/26 05:03:40;;;;;;;5.97;3.28;;;11.50;99.90;;;;;;5030046;28;20021;-78
2024/03/26 05:06:06;;;;;;;5.57;3.10;;;11.50;99.90;;;;;;5029809;28;20145;-78
2024/03/26 05:08:32;;;;;;;3.90;2.70;;;11.50;99.90;;;;;;5010745;28;20515;-78
2024/03/26 05:10:57;;;;;;;4.88;2.90;;;11.50;99.90;;;;;;5010831;28;20030;-79
2024/03/26 05:13:23;;;;;;;7.07;3.17;;;11.50;99.90;;;;;;5011865;28;20026;-79
2024/03/26 05:15:48;;;;;;;7.53;3.78;;;11.50;99.90;;;;;;5011686;28;20017;-79
2024/03/26 05:18:14;;;;;;;6.60;3.20;;;11.50;99.90;;;;;;5030321;28;20017;-78
2024/03/26 05:20:39;;;;;;;7.05;3.45;;;11.40;99.90;;;;;;5013883;28;20033;-79
2024/03/26 05:23:05;;;;;;;7.32;3.60;;;11.40;99.90;;;;;;5014078;28;20483;-78
2024/03/26 05:25:30;;;;;;;6.45;3.30;;;11.40;99.90;;;;;;5032635;28;20501;-79
2024/03/26 05:27:56;;;;;;;8.13;3.25;;;11.40;99.90;;;;;;5013580;28;20626;-79
2024/03/26 05:30:21;;;;;;;5.20;3.10;;;11.40;99.90;;;;;;5014150;28;20026;-79
2024/03/26 05:32:47;;;;;;;4.40;3.03;;;11.40;99.90;;;;;;5013518;28;20018;-78
2024/03/26 05:35:13;;;;;;;5.13;3.63;;;11.40;99.90;;;;;;5031663;28;20025;-79
2024/03/26 05:37:38;;;;;;;9.50;3.28;;;11.40;99.90;;;;;;5012980;28;20030;-78
2024/03/26 05:40:04;;;;;;;5.80;3.35;;;11.40;99.90;;;;;;5032373;28;20037;-79
2024/03/26 05:42:29;;;;;;;5.22;3.20;;;11.40;99.90;;;;;;5030078;28;20032;-80
2024/03/26 05:44:55;;;;;;;6.57;3.25;;;11.40;99.90;;;;;;5031719;28;20017;-78
2024/03/26 05:47:20;;;;;;;9.07;3.50;;;11.40;99.90;;;;;;5011833;28;20029;-80
2024/03/26 05:49:46;;;;;;;9.68;3.72;;;11.50;99.90;;;;;;5010348;28;20113;-79
2024/03/26 05:52:11;;;;;;;5.88;3.10;;;11.50;99.90;;;;;;5028539;28;20096;-78
2024/03/26 05:54:37;;;;;;;4.68;3.25;;;11.50;99.90;;;;;;5011501;28;20049;-78
2024/03/26 05:57:03;;;;;;;6.68;3.75;;;11.50;99.90;;;;;;5030352;28;20133;-78
2024/03/26 05:59:28;;;;;;;6.28;3.40;;;11.50;99.90;;;;;;5027704;28;20037;-78
2024/03/26 06:01:54;;;;;;;5.38;3.30;;;11.50;99.90;;;;;;5006936;28;20033;-79
2024/03/26 06:04:19;;;;;;;6.00;3.85;;;11.50;99.90;;;;;;5010502;28;20021;-80
2024/03/26 06:06:45;;;;;;;9.63;3.78;;;11.50;99.90;;;;;;5030386;28;20033;-79
2024/03/26 06:09:10;;;;;;;7.47;3.05;;;11.50;99.90;;;;;;5018167;28;20026;-80
2024/03/26 06:11:36;;;;;;;6.28;3.38;;;11.50;99.90;;;;;;5027817;28;20032;-79
2024/03/26 06:14:02;;;;;;;7.30;2.83;;;11.50;99.90;;;;;;5025749;28;20022;-80
2024/03/26 06:16:28;;;;;;;7.18;3.15;;;11.40;99.90;;;;;;5008164;28;20026;-79
2024/03/26 06:18:53;;;;;;;6.18;3.40;;;11.40;99.90;;;;;;5008301;28;20032;-79
2024/03/26 06:21:19;;;;;;;6.40;3.40;;;11.40;99.90;;;;;;5004513;28;20061;-79
2024/03/26 06:23:44;;;;;;;8.65;3.38;;;11.30;99.90;;;;;;5028111;28;20061;-78
2024/03/26 06:26:10;;;;;;;8.90;3.13;;;11.40;99.90;;;;;;5010499;28;20032;-80
2024/03/26 06:28:35;;;;;;;4.85;3.70;;;11.40;99.90;;;;;;5009373;28;20044;-78
2024/03/26 06:31:01;;;;;;;4.88;3.38;;;11.40;99.90;;;;;;5010422;28;20010;-78
2024/03/26 06:33:26;;;;;;;5.80;3.53;;;11.40;99.90;;;;;;5020444;28;20028;-78
2024/03/26 06:35:52;;;;;;;7.10;3.55;;;11.40;99.90;;;;;;5021489;28;20014;-78
2024/03/26 06:38:17;;;;;;;9.90;3.38;;;11.50;99.90;;;;;;5001818;28;20032;-78
2024/03/26 06:40:43;;;;;;;5.18;3.35;;;11.50;99.90;;;;;;5023242;28;20033;-79
2024/03/26 06:43:09;;;;;;;5.15;3.42;;;11.50;99.90;;;;;;4999868;28;20033;-79
2024/03/26 06:45:34;;;;;;;6.45;3.42;;;11.50;99.90;;;;;;5024898;28;20029;-79
2024/03/26 06:48:00;;;;;;;8.40;3.60;;;11.50;99.90;;;;;;5007556;28;20698;-78
2024/03/26 06:50:25;;;;;;;4.78;2.90;;;11.50;99.90;;;;;;5010813;28;20040;-78
2024/03/26 06:52:54;;;;;;;7.57;3.13;;;11.50;99.90;;;;;;5011956;28;20135;-78
2024/03/26 06:55:22;;;;;;;4.55;3.42;;;11.50;99.90;;;;;;5030945;28;20029;-80
2024/03/26 06:57:47;;;;;;;5.60;3.15;;;11.50;99.90;;;;;;5029550;28;20017;-79
2024/03/26 07:00:14;;;;;;;10.30;3.65;;;11.50;99.90;;;;;;5029884;28;20901;-78
2024/03/26 07:02:43;;;;;;;6.30;3.58;;;11.50;99.90;;;;;;5011286;28;20037;-79
2024/03/26 07:05:11;;;;;;;7.40;3.50;;;11.50;99.90;;;;;;5011086;28;20029;-79
2024/03/26 07:07:39;;;;;;;7.03;3.17;;;11.50;99.90;;;;;;5029868;28;20136;-79
2024/03/26 07:10:05;;;;;;;7.03;3.50;;;11.50;99.90;;;;;;5011453;28;20053;-79
2024/03/26 07:12:32;;;;;;;7.22;3.88;;;11.50;99.90;;;;;;5012567;28;20071;-79
2024/03/26 07:14:58;;;;;;;5.40;3.38;;;11.50;99.90;;;;;;5010947;28;20404;-80
2024/03/26 07:17:24;;;;;;;3.17;2.85;;;11.50;99.90;;;;;;5005880;28;20021;-77
2024/03/26 07:19:50;;;;;;;8.63;3.33;;;11.50;99.90;;;;;;5008449;28;20032;-79
2024/03/26 07:22:16;;;;;;;7.05;3.50;;;11.50;99.90;;;;;;5030392;28;20026;-79
2024/03/26 07:24:41;;;;;;;9.27;3.65;;;11.50;99.90;;;;;;5029629;28;20205;-79
2024/03/26 07:27:07;;;;;;;8.63;3.72;;;11.50;99.90;;;;;;5029792;28;20018;-79
2024/03/26 07:29:33;;;;;;;8.85;3.72;;;11.50;99.90;;;;;;5012276;28;20029;-79
2024/03/26 07:31:59;;;;;;;6.25;3.83;;;11.50;99.90;;;;;;5029074;28;20028;-79
2024/03/26 07:34:24;;;;;;;8.40;3.65;;;11.50;99.90;;;;;;5010747;28;20030;-79
2024/03/26 07:36:50;;;;;;;6.57;3.67;;;11.60;99.90;;;;;;5012482;28;20036;-80
2024/03/26 07:39:20;;;;;;;8.63;3.58;;;11.60;99.90;;;;;;5029521;28;20654;-79
2024/03/26 07:41:46;;;;;;;7.43;4.05;;;11.50;99.90;;;;;;5022036;28;20027;-79
2024/03/26 07:44:11;;;;;;;8.05;4.03;;;11.50;99.90;;;;;;5009273;28;20070;-79
2024/03/26 07:46:37;;;;;;;5.00;3.13;;;11.60;99.90;;;;;;5012101;28;20030;-78
2024/03/26 07:49:04;;;;;;;7.78;3.67;;;11.60;99.90;;;;;;5009293;28;20033;-79
2024/03/26 07:51:30;;;;;;;7.72;4.07;;;11.60;99.90;;;;;;5027385;28;20479;-80
2024/03/26 07:53:56;;;;;;;7.90;3.20;;;11.60;99.90;;;;;;5025560;28;20476;-80
2024/03/26 07:56:22;;;;;;;7.90;3.85;;;11.60;99.90;;;;;;5008798;28;20025;-78
2024/03/26 07:58:47;;;;;;;8.75;3.53;;;11.60;99.90;;;;;;5023076;28;20121;-79
2024/03/26 08:01:13;;;;;;;6.53;3.78;;;11.60;99.90;;;;;;5028468;28;20045;-79
2024/03/26 08:03:38;;;;;;;5.72;3.60;;;11.60;99.90;;;;;;5029092;28;20030;-78
2024/03/26 08:06:04;;;;;;;7.05;3.88;;;11.60;99.90;;;;;;5007087;28;20021;-79
2024/03/26 08:08:30;;;;;;;7.30;3.80;;;11.60;99.90;;;;;;5020911;28;20092;-80
2024/03/26 08:10:56;;;;;;;5.78;3.25;;;11.70;99.90;;;;;;5023099;28;20104;-79
2024/03/26 08:13:21;;;;;;;8.82;3.85;;;11.70;99.90;;;;;;5008281;28;20498;-79
2024/03/26 08:15:47;;;;;;;5.60;3.33;;;11.70;99.90;;;;;;5010521;28;20392;-78
2024/03/26 08:18:12;;;;;;;5.68;3.78;;;11.70;99.90;;;;;;5026255;28;20014;-80
2024/03/26 08:20:40;;;;;;;6.57;3.67;;;11.80;99.90;;;;;;5011317;28;20044;-78
2024/03/26 08:23:06;;;;;;;6.53;3.80;;;11.80;99.90;;;;;;5029249;28;20025;-79
2024/03/26 08:25:35;;;;;;;7.75;3.97;;;11.80;99.90;;;;;;5011967;28;20109;-79
2024/03/26 08:28:00;;;;;;;6.35;3.83;;;11.90;99.90;;;;;;5002348;28;20026;-80
2024/03/26 08:30:26;;;;;;;5.97;3.72;;;12.00;99.90;;;;;;5024442;28;20032;-79
2024/03/26 08:32:52;;;;;;;6.25;3.40;;;12.10;99.90;;;;;;5010748;28;20520;-79
2024/03/26 08:35:18;;;;;;;7.53;3.85;;;12.20;99.90;;;;;;5011292;28;20079;-79
2024/03/26 08:37:44;;;;;;;5.80;3.97;;;12.30;99.90;;;;;;5008864;28;20422;-79
2024/03/26 08:40:11;;;;;;;9.88;4.53;;;12.30;99.90;;;;;;5027376;28;20100;-80
2024/03/26 08:42:37;;;;;;;10.32;4.07;;;12.40;99.90;;;;;;5025183;28;20118;-79
2024/03/26 08:45:04;;;;;;;6.60;4.03;;;12.50;99.90;;;;;;5026770;28;20022;-79
2024/03/26 08:47:31;;;;;;;5.93;3.55;;;12.40;99.90;;;;;;5010104;28;20562;-79
2024/03/26 08:49:57;;;;;;;8.85;3.88;;;12.50;99.90;;;;;;5007511;28;20022;-79
2024/03/26 08:52:22;;;;;;;10.00;4.28;;;12.60;99.90;;;;;;5008693;28;20033;-80
2024/03/26 08:54:48;;;;;;;14.63;3.80;;;12.70;99.90;;;;;;5008664;28;20022;-79
2024/03/26 08:57:15;;;;;;;6.88;3.38;;;12.70;99.90;;;;;;5028293;28;20021;-79
2024/03/26 08:59:42;;;;;;;14.43;4.00;;;12.70;99.90;;;;;;5028781;28;20115;-79
2024/03/26 09:02:08;;;;;;;6.10;3.50;;;12.60;99.90;;;;;;5022425;28;20409;-79
2024/03/26 09:04:35;;;;;;;7.00;4.13;;;12.60;99.90;;;;;;5027646;28;20518;-80
2024/03/26 09:07:01;;;;;;;10.55;3.88;;;12.60;99.90;;;;;;5003800;28;20024;-80
2024/03/26 09:09:27;;;;;;;7.03;3.60;;;12.50;99.90;;;;;;5005497;28;20026;-79
2024/03/26 09:11:53;;;;;;;6.65;4.35;;;12.60;99.90;;;;;;5010581;28;20021;-80
2024/03/26 09:14:19;;;;;;;5.70;3.13;;;12.60;99.90;;;;;;5028666;28;20515;-78
2024/03/26 09:16:44;;;;;;;6.18;3.00;;;13.20;99.90;;;;;;5007947;28;20052;-79
2024/03/26 09:19:10;;;;;;;8.68;3.50;;;13.00;99.90;;;;;;5010927;28;20041;-78
2024/03/26 09:21:36;;;;;;;6.60;3.42;;;12.90;99.90;;;;;;5011191;28;20017;-79
2024/03/26 09:24:02;;;;;;;6.53;3.30;;;13.00;99.90;;;;;;5013453;28;20021;-78
2024/03/26 09:26:27;;;;;;;9.23;3.50;;;13.20;99.90;;;;;;5032366;28;20024;-77
2024/03/26 09:28:53;;;;;;;5.15;3.38;;;13.30;99.90;;;;;;5031965;28;20399;-78
2024/03/26 09:31:19;;;;;;;6.93;3.08;;;13.40;99.90;;;;;;5032453;28;20060;-78
2024/03/26 09:33:45;;;;;;;4.55;3.22;;;13.40;99.90;;;;;;5011614;28;20487;-78
2024/03/26 09:36:11;;;;;;;7.72;3.97;;;13.40;99.90;;;;;;5010714;28;20022;-79
2024/03/26 09:38:36;;;;;;;6.75;4.00;;;13.50;99.90;;;;;;5014327;28;20392;-78
2024/03/26 09:41:02;;;;;;;6.05;3.78;;;13.50;99.90;;;;;;5028725;28;20095;-79
2024/03/26 09:43:28;;;;;;;9.95;4.13;;;13.60;99.90;;;;;;5012318;28;20855;-79
2024/03/26 09:45:57;;;;;;;8.30;3.10;;;13.50;99.90;;;;;;5014399;28;20242;-78
2024/03/26 09:48:25;;;;;;;2.85;1.63;;;13.20;99.90;;;;;;5030771;28;20057;-78
2024/03/26 09:50:51;;;;;;;4.00;1.80;;;14.00;99.90;;;;;;5031968;28;20017;-78
2024/03/26 09:53:19;;;;;;;3.90;1.85;;;14.80;99.90;;;;;;5010160;28;20032;-78
2024/03/26 09:55:46;;;;;;;2.28;1.90;;;15.00;99.90;;;;;;5032112;28;20083;-79
2024/03/26 09:58:11;;;;;;;1.58;1.45;;;15.20;99.90;;;;;;5031187;28;20553;-78
2024/03/26 10:00:38;;;;;;;2.05;1.58;;;15.20;99.90;;;;;;5032063;28;20061;-78
2024/03/26 10:03:07;;;;;;;3.22;1.90;;;15.20;99.90;;;;;;5011798;28;20057;-80
2024/03/26 10:05:32;;;;;;;3.38;1.90;;;15.10;99.90;;;;;;5032192;28;20476;-79
2024/03/26 10:07:58;;;;;;;10.65;2.38;;;15.20;99.90;;;;;;5006079;28;20033;-79
2024/03/26 10:10:23;;;;;;;5.38;1.77;;;15.20;99.90;;;;;;5031739;28;20026;-79
2024/03/26 10:12:49;;;;;;;2.70;1.77;;;15.20;99.90;;;;;;5013935;28;20021;-81
2024/03/26 10:15:14;;;;;;;3.92;1.88;;;15.20;99.90;;;;;;5010445;28;20030;-78
2024/03/26 10:17:40;;;;;;;2.72;1.80;;;15.20;99.90;;;;;;5009040;28;20019;-76
2024/03/26 10:20:06;;;;;;;2.60;2.00;;;15.10;99.90;;;;;;5004499;28;20026;-75
2024/03/26 10:22:31;;;;;;;4.05;2.67;;;15.10;99.90;;;;;;5011786;28;20021;-76
2024/03/26 10:24:57;;;;;;;3.45;1.80;;;15.20;99.90;;;;;;5023157;28;20141;-73
2024/03/26 10:27:23;;;;;;;6.03;2.40;;;15.10;99.90;;;;;;5029733;28;20048;-74
2024/03/26 10:29:52;;;;;;;4.75;2.13;;;15.10;99.90;;;;;;5012424;28;20029;-74
2024/03/26 10:32:22;;;;;;;8.65;3.00;;;15.10;99.90;;;;;;5012508;28;20033;-75
2024/03/26 10:34:52;;;;;;;;;;;15.10;99.70;;;;;;5008161;28;20075;-75
2024/03/26 10:37:24;;;;;;;3.50;2.22;;;15.10;99.90;;;;;;5010697;28;20422;-74
2024/03/26 10:39:55;;;;;;;2.75;1.92;;;15.10;99.90;;;;;;5031134;28;20476;-76
2024/03/26 10:42:22;;;;;;;4.82;2.20;;;15.10;99.90;;;;;;5010668;28;20376;-74
2024/03/26 10:44:48;;;;;;;3.08;1.60;;;15.10;99.90;;;;;;5013225;28;20384;-75
2024/03/26 10:47:14;;;;;;;3.80;2.00;;;15.10;99.90;;;;;;5030810;28;20043;-75
2024/03/26 10:49:40;;;;;;;3.03;1.88;;;15.00;99.90;;;;;;5030482;28;20029;-75
2024/03/26 10:52:09;;;;;;;3.75;2.28;;;15.00;99.70;;;;;;5029057;28;20581;-74
2024/03/26 10:54:36;;;;;;;5.60;1.83;;;15.10;99.60;;;;;;5030230;28;20060;-74
2024/03/26 10:57:03;;;;;;;5.90;2.13;;;15.20;99.30;;;;;;5012953;28;20026;-74
2024/03/26 10:59:29;;;;;;;4.60;1.92;;;15.20;99.20;;;;;;5031017;28;20037;-75
2024/03/26 11:01:55;;;;;;;4.07;1.90;;;15.20;99.10;;;;;;5013089;28;20095;-74
2024/03/26 11:04:21;;;;;;;4.03;1.95;;;15.20;99.20;;;;;;5032404;28;20471;-75
2024/03/26 11:06:48;;;;;;;3.78;2.13;;;15.20;99.00;;;;;;5021177;28;20029;-74
2024/03/26 11:09:16;;;;;;;1.75;1.65;;;15.30;98.80;;;;;;5014864;28;20025;-75
2024/03/26 11:11:41;;;;;;;6.93;2.08;;;15.30;98.70;;;;;;5014011;28;20018;-74
2024/03/26 11:14:07;;;;;;;6.72;2.42;;;15.30;98.60;;;;;;5012208;28;20028;-75
2024/03/26 11:16:33;;;;;;;3.97;1.70;;;15.30;98.30;;;;;;5029053;28;20036;-75
2024/03/26 11:19:17;;;;;;;9.77;2.53;;;15.30;98.00;;;;;;5027977;28;20021;-74
2024/03/26 11:21:44;;;;;;;4.53;2.20;;;15.30;98.10;;;;;;5026520;28;20075;-75
2024/03/26 11:24:22;;;;;;;4.47;1.95;;;15.40;98.20;;;;;;5030458;28;20044;-76
2024/03/26 11:26:47;;;;;;;3.10;1.77;;;15.30;98.10;;;;;;5027623;28;20094;-74
2024/03/26 11:29:14;;;;;;;2.83;1.92;;;15.30;98.10;;;;;;5008194;28;20559;-75
2024/03/26 11:31:41;;;;;;;5.55;2.38;;;15.20;98.40;;;;;;5012341;28;20022;-75
2024/03/26 11:34:07;;;;;;;2.70;1.83;;;15.20;98.20;;;;;;5008514;28;20069;-75
2024/03/26 11:36:35;;;;;;;9.27;2.10;;;15.30;98.10;;;;;;5022137;28;20566;-75
2024/03/26 11:39:01;;;;;;;3.20;1.98;;;15.20;97.90;;;;;;5007313;28;20391;-75
2024/03/26 11:41:29;;;;;;;5.88;1.60;;;15.30;97.70;;;;;;5026323;28;20029;-74
2024/03/26 11:43:56;;;;;;;10.70;1.92;;;15.30;97.70;;;;;;5029759;28;20026;-75
2024/03/26 11:46:22;;;;;;;4.30;1.60;;;15.30;97.80;;;;;;5012277;28;20018;-75
2024/03/26 11:48:56;;;;;;;3.15;1.60;;;15.30;97.90;;;;;;5029502;28;20021;-75
2024/03/26 11:51:22;;;;;;;8.30;1.90;;;15.30;97.80;;;;;;5029743;28;20025;-75
2024/03/26 11:53:48;;;;;;;3.22;1.80;;;15.30;97.80;;;;;;5029718;28;20514;-75
2024/03/26 11:56:16;;;;;;;6.78;1.60;;;15.40;97.50;;;;;;5029259;28;20092;-75
2024/03/26 11:58:41;;;;;;;3.08;1.60;;;15.40;97.50;;;;;;5011276;28;20049;-75
2024/03/26 12:01:08;;;;;;;3.72;1.75;;;15.40;97.40;;;;;;5029817;28;20052;-75
2024/03/26 12:03:34;;;;;;;5.35;1.42;;;15.30;97.20;;;;;;5028453;28;20068;-74
2024/03/26 12:06:00;;;;;;;2.58;1.45;;;15.30;97.40;;;;;;5004250;28;20061;-76
2024/03/26 12:08:26;;;;;;;2.40;1.58;;;15.30;97.50;;;;;;5026448;28;20036;-75
2024/03/26 12:10:51;;;;;;;2.08;1.40;;;15.30;97.70;;;;;;5029110;28;20401;-76
2024/03/26 12:13:17;;;;;;;4.93;1.58;;;15.20;97.60;;;;;;5026899;28;20052;-74
2024/03/26 12:15:43;;;;;;;6.07;1.65;;;15.20;97.50;;;;;;5011674;28;20072;-77
2024/03/26 12:18:09;;;;;;;6.78;1.77;;;15.20;97.40;;;;;;5028160;28;20018;-76
2024/03/26 12:20:35;;;;;;;3.20;1.52;;;15.20;97.20;;;;;;5023660;28;20704;-77
2024/03/26 12:23:04;;;;;;;4.40;1.50;;;15.20;97.10;;;;;;5009474;28;20407;-76
2024/03/26 12:25:31;;;;;;;2.65;1.15;;;15.20;97.00;;;;;;5025581;28;20055;-77
2024/03/26 12:27:58;;;;;;;1.92;1.35;;;15.20;97.10;;;;;;5029012;28;20021;-75
2024/03/26 12:30:24;;;;;;;4.57;1.80;;;15.20;97.00;;;;;;5010929;28;20035;-76
2024/03/26 12:33:00;;;;;;;5.22;1.63;;;15.20;97.00;;;;;;5011627;28;20159;-77
2024/03/26 12:35:25;;;;;;;1.65;1.40;;;15.20;96.90;;;;;;5007887;28;20053;-76
2024/03/26 12:37:51;;;;;;;3.58;1.92;;;15.20;96.90;;;;;;5011292;28;20053;-76
2024/03/26 12:40:16;;;;;;;2.95;1.70;;;15.20;96.80;;;;;;5029408;28;20605;-77
2024/03/26 12:42:42;;;;;;;2.92;1.38;;;15.10;96.80;;;;;;5010942;28;20039;-76